sensor_id;sensor_type;location;lat;lon;timestamp;P1;durP1;ratioP1;P2;durP2;ratioP2
35128;SDS011;21301;43.626;10.580;2024-03-17T00:01:19;17.88;;;8.77;;
35128;SDS011;21301;43.626;10.580;2024-03-17T00:03:45;11.45;;;7.50;;
35128;SDS011;21301;43.626;10.580;2024-03-17T00:06:10;14.90;;;8.15;;
35128;SDS011;21301;43.626;10.580;2024-03-17T00:08:36;10.85;;;7.47;;
35128;SDS011;21301;43.626;10.580;2024-03-17T00:11:02;11.73;;;7.50;;
35128;SDS011;21301;43.626;10.580;2024-03-17T00:13:30;12.40;;;7.20;;
35128;SDS011;21301;43.626;10.580;2024-03-17T00:15:56;13.48;;;6.80;;
35128;SDS011;21301;43.626;10.580;2024-03-17T00:18:24;10.90;;;6.18;;
35128;SDS011;21301;43.626;10.580;2024-03-17T00:20:51;15.80;;;7.57;;
35128;SDS011;21301;43.626;10.580;2024-03-17T00:23:16;12.45;;;6.80;;
35128;SDS011;21301;43.626;10.580;2024-03-17T00:25:42;13.82;;;6.75;;
35128;SDS011;21301;43.626;10.580;2024-03-17T00:28:09;11.93;;;7.88;;
35128;SDS011;21301;43.626;10.580;2024-03-17T00:30:36;11.02;;;7.07;;
35128;SDS011;21301;43.626;10.580;2024-03-17T00:33:02;12.43;;;7.30;;
35128;SDS011;21301;43.626;10.580;2024-03-17T00:35:28;14.35;;;6.65;;
35128;SDS011;21301;43.626;10.580;2024-03-17T00:37:55;14.30;;;7.10;;
35128;SDS011;21301;43.626;10.580;2024-03-17T00:40:21;14.18;;;7.65;;
35128;SDS011;21301;43.626;10.580;2024-03-17T00:42:46;12.27;;;7.22;;
35128;SDS011;21301;43.626;10.580;2024-03-17T00:45:12;12.27;;;7.45;;
35128;SDS011;21301;43.626;10.580;2024-03-17T00:47:38;15.98;;;7.32;;
35128;SDS011;21301;43.626;10.580;2024-03-17T00:50:04;12.18;;;6.88;;
35128;SDS011;21301;43.626;10.580;2024-03-17T00:52:33;11.85;;;7.57;;
35128;SDS011;21301;43.626;10.580;2024-03-17T00:54:59;13.63;;;7.28;;
35128;SDS011;21301;43.626;10.580;2024-03-17T00:57:25;13.13;;;7.05;;
35128;SDS011;21301;43.626;10.580;2024-03-17T00:59:51;12.95;;;7.78;;
35128;SDS011;21301;43.626;10.580;2024-03-17T01:02:18;12.82;;;7.57;;
35128;SDS011;21301;43.626;10.580;2024-03-17T01:04:44;14.75;;;7.35;;
35128;SDS011;21301;43.626;10.580;2024-03-17T01:07:10;12.23;;;7.57;;
35128;SDS011;21301;43.626;10.580;2024-03-17T01:09:38;11.90;;;7.05;;
35128;SDS011;21301;43.626;10.580;2024-03-17T01:12:04;11.57;;;7.68;;
35128;SDS011;21301;43.626;10.580;2024-03-17T01:14:36;13.38;;;7.70;;
35128;SDS011;21301;43.626;10.580;2024-03-17T01:17:03;11.30;;;7.25;;
35128;SDS011;21301;43.626;10.580;2024-03-17T01:19:30;12.32;;;7.05;;
35128;SDS011;21301;43.626;10.580;2024-03-17T01:21:56;15.65;;;7.70;;
35128;SDS011;21301;43.626;10.580;2024-03-17T01:24:21;9.88;;;6.53;;
35128;SDS011;21301;43.626;10.580;2024-03-17T01:26:47;14.98;;;7.03;;
35128;SDS011;21301;43.626;10.580;2024-03-17T01:29:13;15.57;;;6.57;;
35128;SDS011;21301;43.626;10.580;2024-03-17T01:31:38;10.35;;;6.20;;
35128;SDS011;21301;43.626;10.580;2024-03-17T01:34:04;11.45;;;7.45;;
35128;SDS011;21301;43.626;10.580;2024-03-17T01:36:30;14.60;;;6.90;;
35128;SDS011;21301;43.626;10.580;2024-03-17T01:38:55;10.63;;;7.82;;
35128;SDS011;21301;43.626;10.580;2024-03-17T01:41:21;11.80;;;6.53;;
35128;SDS011;21301;43.626;10.580;2024-03-17T01:43:47;14.27;;;6.97;;
35128;SDS011;21301;43.626;10.580;2024-03-17T01:46:15;14.50;;;6.35;;
35128;SDS011;21301;43.626;10.580;2024-03-17T01:48:42;12.52;;;6.05;;
35128;SDS011;21301;43.626;10.580;2024-03-17T01:51:08;10.13;;;5.75;;
35128;SDS011;21301;43.626;10.580;2024-03-17T01:53:37;10.18;;;6.43;;
35128;SDS011;21301;43.626;10.580;2024-03-17T01:56:04;12.00;;;6.35;;
35128;SDS011;21301;43.626;10.580;2024-03-17T01:58:30;17.05;;;5.78;;
35128;SDS011;21301;43.626;10.580;2024-03-17T02:00:56;8.10;;;5.03;;
35128;SDS011;21301;43.626;10.580;2024-03-17T02:03:22;9.57;;;6.03;;
35128;SDS011;21301;43.626;10.580;2024-03-17T02:05:48;10.63;;;5.85;;
35128;SDS011;21301;43.626;10.580;2024-03-17T02:08:14;9.73;;;5.82;;
35128;SDS011;21301;43.626;10.580;2024-03-17T02:10:39;10.07;;;5.75;;
35128;SDS011;21301;43.626;10.580;2024-03-17T02:13:05;11.60;;;5.93;;
35128;SDS011;21301;43.626;10.580;2024-03-17T02:15:31;13.48;;;6.32;;
35128;SDS011;21301;43.626;10.580;2024-03-17T02:17:57;12.05;;;5.82;;
35128;SDS011;21301;43.626;10.580;2024-03-17T02:20:23;9.10;;;5.47;;
35128;SDS011;21301;43.626;10.580;2024-03-17T02:23:09;8.95;;;5.05;;
35128;SDS011;21301;43.626;10.580;2024-03-17T02:25:34;10.10;;;5.25;;
35128;SDS011;21301;43.626;10.580;2024-03-17T02:28:00;10.00;;;5.18;;
35128;SDS011;21301;43.626;10.580;2024-03-17T02:30:26;11.02;;;5.43;;
35128;SDS011;21301;43.626;10.580;2024-03-17T02:32:52;9.65;;;5.38;;
35128;SDS011;21301;43.626;10.580;2024-03-17T02:35:18;8.13;;;4.82;;
35128;SDS011;21301;43.626;10.580;2024-03-17T02:37:44;8.80;;;4.53;;
35128;SDS011;21301;43.626;10.580;2024-03-17T02:40:09;8.25;;;4.72;;
35128;SDS011;21301;43.626;10.580;2024-03-17T02:42:35;6.95;;;4.65;;
35128;SDS011;21301;43.626;10.580;2024-03-17T02:45:03;11.43;;;4.82;;
35128;SDS011;21301;43.626;10.580;2024-03-17T02:47:29;10.23;;;5.40;;
35128;SDS011;21301;43.626;10.580;2024-03-17T02:49:55;12.80;;;6.20;;
35128;SDS011;21301;43.626;10.580;2024-03-17T02:52:20;18.65;;;7.38;;
35128;SDS011;21301;43.626;10.580;2024-03-17T02:54:48;15.27;;;7.93;;
35128;SDS011;21301;43.626;10.580;2024-03-17T02:57:13;17.67;;;7.30;;
35128;SDS011;21301;43.626;10.580;2024-03-17T02:59:39;15.00;;;7.50;;
35128;SDS011;21301;43.626;10.580;2024-03-17T03:02:04;15.32;;;6.95;;
35128;SDS011;21301;43.626;10.580;2024-03-17T03:04:30;17.35;;;7.72;;
35128;SDS011;21301;43.626;10.580;2024-03-17T03:06:55;13.50;;;7.38;;
35128;SDS011;21301;43.626;10.580;2024-03-17T03:09:21;12.63;;;7.25;;
35128;SDS011;21301;43.626;10.580;2024-03-17T03:11:56;11.82;;;6.90;;
35128;SDS011;21301;43.626;10.580;2024-03-17T03:14:21;9.63;;;5.32;;
35128;SDS011;21301;43.626;10.580;2024-03-17T03:16:47;15.32;;;7.05;;
35128;SDS011;21301;43.626;10.580;2024-03-17T03:19:13;14.25;;;7.25;;
35128;SDS011;21301;43.626;10.580;2024-03-17T03:21:39;18.77;;;6.68;;
35128;SDS011;21301;43.626;10.580;2024-03-17T03:24:05;13.40;;;6.18;;
35128;SDS011;21301;43.626;10.580;2024-03-17T03:26:30;12.73;;;6.07;;
35128;SDS011;21301;43.626;10.580;2024-03-17T03:28:56;14.68;;;6.70;;
35128;SDS011;21301;43.626;10.580;2024-03-17T03:31:22;15.32;;;6.70;;
35128;SDS011;21301;43.626;10.580;2024-03-17T03:33:48;19.10;;;7.35;;
35128;SDS011;21301;43.626;10.580;2024-03-17T03:36:14;15.73;;;6.68;;
35128;SDS011;21301;43.626;10.580;2024-03-17T03:38:41;15.48;;;5.75;;
35128;SDS011;21301;43.626;10.580;2024-03-17T03:41:08;14.82;;;6.32;;
35128;SDS011;21301;43.626;10.580;2024-03-17T03:43:35;13.85;;;6.30;;
35128;SDS011;21301;43.626;10.580;2024-03-17T03:46:01;17.63;;;6.78;;
35128;SDS011;21301;43.626;10.580;2024-03-17T03:48:27;13.18;;;5.03;;
35128;SDS011;21301;43.626;10.580;2024-03-17T03:50:52;18.27;;;7.15;;
35128;SDS011;21301;43.626;10.580;2024-03-17T03:53:19;15.05;;;6.47;;
35128;SDS011;21301;43.626;10.580;2024-03-17T03:55:45;10.73;;;6.78;;
35128;SDS011;21301;43.626;10.580;2024-03-17T03:58:11;11.52;;;5.75;;
35128;SDS011;21301;43.626;10.580;2024-03-17T04:00:38;8.18;;;5.80;;
35128;SDS011;21301;43.626;10.580;2024-03-17T04:03:04;10.65;;;5.68;;
35128;SDS011;21301;43.626;10.580;2024-03-17T04:05:30;10.00;;;6.13;;
35128;SDS011;21301;43.626;10.580;2024-03-17T04:07:56;9.23;;;4.05;;
35128;SDS011;21301;43.626;10.580;2024-03-17T04:10:22;11.57;;;5.40;;
35128;SDS011;21301;43.626;10.580;2024-03-17T04:12:49;8.45;;;5.10;;
35128;SDS011;21301;43.626;10.580;2024-03-17T04:15:14;8.73;;;5.20;;
35128;SDS011;21301;43.626;10.580;2024-03-17T04:17:41;8.90;;;5.65;;
35128;SDS011;21301;43.626;10.580;2024-03-17T04:20:07;11.63;;;5.45;;
35128;SDS011;21301;43.626;10.580;2024-03-17T04:22:34;7.72;;;4.28;;
35128;SDS011;21301;43.626;10.580;2024-03-17T04:25:00;10.82;;;5.95;;
35128;SDS011;21301;43.626;10.580;2024-03-17T04:27:26;11.20;;;5.25;;
35128;SDS011;21301;43.626;10.580;2024-03-17T04:29:52;7.97;;;4.80;;
35128;SDS011;21301;43.626;10.580;2024-03-17T04:32:21;8.20;;;4.85;;
35128;SDS011;21301;43.626;10.580;2024-03-17T04:34:48;10.68;;;5.63;;
35128;SDS011;21301;43.626;10.580;2024-03-17T04:37:13;7.20;;;4.38;;
35128;SDS011;21301;43.626;10.580;2024-03-17T04:39:42;10.02;;;5.20;;
35128;SDS011;21301;43.626;10.580;2024-03-17T04:42:09;10.00;;;4.90;;
35128;SDS011;21301;43.626;10.580;2024-03-17T04:44:36;10.15;;;5.45;;
35128;SDS011;21301;43.626;10.580;2024-03-17T04:47:04;9.10;;;4.38;;
35128;SDS011;21301;43.626;10.580;2024-03-17T04:49:34;7.35;;;4.00;;
35128;SDS011;21301;43.626;10.580;2024-03-17T04:52:03;9.65;;;4.93;;
35128;SDS011;21301;43.626;10.580;2024-03-17T04:54:31;7.82;;;5.18;;
35128;SDS011;21301;43.626;10.580;2024-03-17T04:56:58;8.75;;;4.93;;
35128;SDS011;21301;43.626;10.580;2024-03-17T04:59:24;10.30;;;5.05;;
35128;SDS011;21301;43.626;10.580;2024-03-17T05:01:51;12.90;;;6.30;;
35128;SDS011;21301;43.626;10.580;2024-03-17T05:04:17;12.57;;;5.28;;
35128;SDS011;21301;43.626;10.580;2024-03-17T05:06:43;13.90;;;6.45;;
35128;SDS011;21301;43.626;10.580;2024-03-17T05:09:14;16.05;;;6.28;;
35128;SDS011;21301;43.626;10.580;2024-03-17T05:11:43;14.98;;;6.13;;
35128;SDS011;21301;43.626;10.580;2024-03-17T05:14:10;10.20;;;4.90;;
35128;SDS011;21301;43.626;10.580;2024-03-17T05:16:36;13.60;;;5.43;;
35128;SDS011;21301;43.626;10.580;2024-03-17T05:19:02;9.10;;;4.63;;
35128;SDS011;21301;43.626;10.580;2024-03-17T05:21:29;9.25;;;4.60;;
35128;SDS011;21301;43.626;10.580;2024-03-17T05:23:55;7.00;;;4.35;;
35128;SDS011;21301;43.626;10.580;2024-03-17T05:26:26;7.30;;;4.05;;
35128;SDS011;21301;43.626;10.580;2024-03-17T05:28:52;14.05;;;5.78;;
35128;SDS011;21301;43.626;10.580;2024-03-17T05:31:18;15.00;;;6.03;;
35128;SDS011;21301;43.626;10.580;2024-03-17T05:33:47;13.38;;;5.80;;
35128;SDS011;21301;43.626;10.580;2024-03-17T05:36:13;10.60;;;4.75;;
35128;SDS011;21301;43.626;10.580;2024-03-17T05:38:39;8.60;;;4.93;;
35128;SDS011;21301;43.626;10.580;2024-03-17T05:41:06;8.05;;;4.85;;
35128;SDS011;21301;43.626;10.580;2024-03-17T05:43:33;7.82;;;4.55;;
35128;SDS011;21301;43.626;10.580;2024-03-17T05:46:03;6.82;;;4.10;;
35128;SDS011;21301;43.626;10.580;2024-03-17T05:48:36;9.05;;;4.60;;
35128;SDS011;21301;43.626;10.580;2024-03-17T05:51:05;12.23;;;5.18;;
35128;SDS011;21301;43.626;10.580;2024-03-17T05:53:32;12.77;;;6.05;;
35128;SDS011;21301;43.626;10.580;2024-03-17T05:55:58;10.43;;;4.50;;
35128;SDS011;21301;43.626;10.580;2024-03-17T05:58:24;18.10;;;6.05;;
35128;SDS011;21301;43.626;10.580;2024-03-17T06:00:51;11.60;;;6.10;;
35128;SDS011;21301;43.626;10.580;2024-03-17T06:03:16;13.05;;;5.95;;
35128;SDS011;21301;43.626;10.580;2024-03-17T06:05:45;15.70;;;6.20;;
35128;SDS011;21301;43.626;10.580;2024-03-17T06:08:11;12.38;;;5.80;;
35128;SDS011;21301;43.626;10.580;2024-03-17T06:10:37;12.75;;;6.18;;
35128;SDS011;21301;43.626;10.580;2024-03-17T06:13:03;12.65;;;5.45;;
35128;SDS011;21301;43.626;10.580;2024-03-17T06:15:30;18.10;;;5.40;;
35128;SDS011;21301;43.626;10.580;2024-03-17T06:17:57;11.93;;;5.63;;
35128;SDS011;21301;43.626;10.580;2024-03-17T06:20:23;11.60;;;5.75;;
35128;SDS011;21301;43.626;10.580;2024-03-17T06:22:55;15.75;;;5.55;;
35128;SDS011;21301;43.626;10.580;2024-03-17T06:25:21;10.43;;;4.05;;
35128;SDS011;21301;43.626;10.580;2024-03-17T06:27:49;11.95;;;6.40;;
35128;SDS011;21301;43.626;10.580;2024-03-17T06:30:19;15.50;;;5.10;;
35128;SDS011;21301;43.626;10.580;2024-03-17T06:32:47;12.57;;;5.68;;
35128;SDS011;21301;43.626;10.580;2024-03-17T06:35:13;12.88;;;5.80;;
35128;SDS011;21301;43.626;10.580;2024-03-17T06:37:51;11.70;;;6.65;;
35128;SDS011;21301;43.626;10.580;2024-03-17T06:40:17;11.45;;;6.13;;
35128;SDS011;21301;43.626;10.580;2024-03-17T06:42:49;10.95;;;6.13;;
35128;SDS011;21301;43.626;10.580;2024-03-17T06:45:14;12.40;;;6.30;;
35128;SDS011;21301;43.626;10.580;2024-03-17T06:47:42;16.88;;;10.50;;
35128;SDS011;21301;43.626;10.580;2024-03-17T06:50:09;13.07;;;6.75;;
35128;SDS011;21301;43.626;10.580;2024-03-17T06:52:35;12.57;;;7.00;;
35128;SDS011;21301;43.626;10.580;2024-03-17T06:55:04;12.80;;;6.03;;
35128;SDS011;21301;43.626;10.580;2024-03-17T06:57:31;11.13;;;5.53;;
35128;SDS011;21301;43.626;10.580;2024-03-17T06:59:59;12.73;;;5.38;;
35128;SDS011;21301;43.626;10.580;2024-03-17T07:02:30;8.52;;;4.93;;
35128;SDS011;21301;43.626;10.580;2024-03-17T07:04:58;8.55;;;4.82;;
35128;SDS011;21301;43.626;10.580;2024-03-17T07:07:27;12.93;;;5.10;;
35128;SDS011;21301;43.626;10.580;2024-03-17T07:09:53;7.28;;;4.47;;
35128;SDS011;21301;43.626;10.580;2024-03-17T07:12:19;8.07;;;4.15;;
35128;SDS011;21301;43.626;10.580;2024-03-17T07:14:45;6.68;;;4.32;;
35128;SDS011;21301;43.626;10.580;2024-03-17T07:17:11;6.88;;;3.60;;
35128;SDS011;21301;43.626;10.580;2024-03-17T07:19:36;6.60;;;3.72;;
35128;SDS011;21301;43.626;10.580;2024-03-17T07:22:03;7.68;;;4.45;;
35128;SDS011;21301;43.626;10.580;2024-03-17T07:24:29;7.00;;;4.18;;
35128;SDS011;21301;43.626;10.580;2024-03-17T07:26:55;7.28;;;3.85;;
35128;SDS011;21301;43.626;10.580;2024-03-17T07:29:21;10.15;;;4.30;;
35128;SDS011;21301;43.626;10.580;2024-03-17T07:31:46;6.97;;;4.15;;
35128;SDS011;21301;43.626;10.580;2024-03-17T07:34:12;10.50;;;4.60;;
35128;SDS011;21301;43.626;10.580;2024-03-17T07:36:37;6.88;;;4.32;;
35128;SDS011;21301;43.626;10.580;2024-03-17T07:39:04;15.40;;;7.70;;
35128;SDS011;21301;43.626;10.580;2024-03-17T07:41:34;17.63;;;10.65;;
35128;SDS011;21301;43.626;10.580;2024-03-17T07:44:01;27.35;;;14.90;;
35128;SDS011;21301;43.626;10.580;2024-03-17T07:46:26;36.30;;;20.23;;
35128;SDS011;21301;43.626;10.580;2024-03-17T07:48:52;37.70;;;20.63;;
35128;SDS011;21301;43.626;10.580;2024-03-17T07:51:17;37.65;;;22.08;;
35128;SDS011;21301;43.626;10.580;2024-03-17T07:53:45;36.15;;;22.00;;
35128;SDS011;21301;43.626;10.580;2024-03-17T07:56:13;43.85;;;23.85;;
35128;SDS011;21301;43.626;10.580;2024-03-17T07:58:40;35.30;;;20.55;;
35128;SDS011;21301;43.626;10.580;2024-03-17T08:01:14;35.28;;;17.48;;
35128;SDS011;21301;43.626;10.580;2024-03-17T08:03:41;30.17;;;16.45;;
35128;SDS011;21301;43.626;10.580;2024-03-17T08:06:09;23.05;;;13.18;;
35128;SDS011;21301;43.626;10.580;2024-03-17T08:08:38;34.50;;;14.73;;
35128;SDS011;21301;43.626;10.580;2024-03-17T08:11:04;22.75;;;11.45;;
35128;SDS011;21301;43.626;10.580;2024-03-17T08:13:30;21.75;;;12.40;;
35128;SDS011;21301;43.626;10.580;2024-03-17T08:16:03;22.98;;;12.65;;
35128;SDS011;21301;43.626;10.580;2024-03-17T08:18:36;21.02;;;14.95;;
35128;SDS011;21301;43.626;10.580;2024-03-17T08:21:02;20.00;;;10.88;;
35128;SDS011;21301;43.626;10.580;2024-03-17T08:23:29;14.98;;;9.15;;
35128;SDS011;21301;43.626;10.580;2024-03-17T08:25:56;12.07;;;5.95;;
35128;SDS011;21301;43.626;10.580;2024-03-17T08:28:23;12.52;;;6.00;;
35128;SDS011;21301;43.626;10.580;2024-03-17T08:30:56;12.82;;;6.82;;
35128;SDS011;21301;43.626;10.580;2024-03-17T08:33:26;15.02;;;7.85;;
35128;SDS011;21301;43.626;10.580;2024-03-17T08:35:57;17.02;;;7.35;;
35128;SDS011;21301;43.626;10.580;2024-03-17T08:38:24;11.52;;;6.53;;
35128;SDS011;21301;43.626;10.580;2024-03-17T08:40:51;18.05;;;8.63;;
35128;SDS011;21301;43.626;10.580;2024-03-17T08:43:17;14.63;;;8.10;;
35128;SDS011;21301;43.626;10.580;2024-03-17T08:45:44;13.65;;;7.90;;
35128;SDS011;21301;43.626;10.580;2024-03-17T08:48:10;14.93;;;8.68;;
35128;SDS011;21301;43.626;10.580;2024-03-17T08:50:36;15.70;;;8.27;;
35128;SDS011;21301;43.626;10.580;2024-03-17T08:53:02;14.07;;;7.95;;
35128;SDS011;21301;43.626;10.580;2024-03-17T08:55:28;14.80;;;7.95;;
35128;SDS011;21301;43.626;10.580;2024-03-17T08:57:53;14.27;;;9.00;;
35128;SDS011;21301;43.626;10.580;2024-03-17T09:00:19;16.17;;;9.38;;
35128;SDS011;21301;43.626;10.580;2024-03-17T09:02:45;13.73;;;8.88;;
35128;SDS011;21301;43.626;10.580;2024-03-17T09:05:10;15.75;;;8.68;;
35128;SDS011;21301;43.626;10.580;2024-03-17T09:07:38;15.95;;;10.25;;
35128;SDS011;21301;43.626;10.580;2024-03-17T09:10:05;15.00;;;8.85;;
35128;SDS011;21301;43.626;10.580;2024-03-17T09:12:31;15.05;;;9.43;;
35128;SDS011;21301;43.626;10.580;2024-03-17T09:14:57;14.23;;;9.27;;
35128;SDS011;21301;43.626;10.580;2024-03-17T09:17:24;19.48;;;9.93;;
35128;SDS011;21301;43.626;10.580;2024-03-17T09:19:50;14.43;;;8.98;;
35128;SDS011;21301;43.626;10.580;2024-03-17T09:22:15;14.20;;;9.50;;
35128;SDS011;21301;43.626;10.580;2024-03-17T09:24:41;19.83;;;12.70;;
35128;SDS011;21301;43.626;10.580;2024-03-17T09:27:07;21.77;;;13.43;;
35128;SDS011;21301;43.626;10.580;2024-03-17T09:29:32;23.48;;;12.38;;
35128;SDS011;21301;43.626;10.580;2024-03-17T09:31:58;19.55;;;12.73;;
35128;SDS011;21301;43.626;10.580;2024-03-17T09:34:24;20.45;;;12.93;;
35128;SDS011;21301;43.626;10.580;2024-03-17T09:36:50;24.92;;;14.93;;
35128;SDS011;21301;43.626;10.580;2024-03-17T09:39:17;24.50;;;16.05;;
35128;SDS011;21301;43.626;10.580;2024-03-17T09:41:45;25.27;;;14.93;;
35128;SDS011;21301;43.626;10.580;2024-03-17T09:44:12;26.70;;;15.80;;
35128;SDS011;21301;43.626;10.580;2024-03-17T09:46:41;25.65;;;14.20;;
35128;SDS011;21301;43.626;10.580;2024-03-17T09:49:12;27.80;;;16.10;;
35128;SDS011;21301;43.626;10.580;2024-03-17T09:51:41;25.30;;;15.15;;
35128;SDS011;21301;43.626;10.580;2024-03-17T09:54:18;26.63;;;14.05;;
35128;SDS011;21301;43.626;10.580;2024-03-17T09:56:44;28.08;;;16.02;;
35128;SDS011;21301;43.626;10.580;2024-03-17T09:59:11;26.48;;;15.82;;
35128;SDS011;21301;43.626;10.580;2024-03-17T10:01:39;28.25;;;15.30;;
35128;SDS011;21301;43.626;10.580;2024-03-17T10:04:05;25.20;;;14.07;;
35128;SDS011;21301;43.626;10.580;2024-03-17T10:06:31;23.58;;;14.15;;
35128;SDS011;21301;43.626;10.580;2024-03-17T10:09:00;23.33;;;15.45;;
35128;SDS011;21301;43.626;10.580;2024-03-17T10:11:33;21.98;;;14.35;;
35128;SDS011;21301;43.626;10.580;2024-03-17T10:14:03;26.50;;;14.55;;
35128;SDS011;21301;43.626;10.580;2024-03-17T10:16:30;23.40;;;16.02;;
35128;SDS011;21301;43.626;10.580;2024-03-17T10:21:36;19.42;;;13.70;;
35128;SDS011;21301;43.626;10.580;2024-03-17T10:26:48;20.73;;;13.93;;
35128;SDS011;21301;43.626;10.580;2024-03-17T10:37:30;26.20;;;13.63;;
35128;SDS011;21301;43.626;10.580;2024-03-17T10:40:14;19.58;;;12.10;;
35128;SDS011;21301;43.626;10.580;2024-03-17T10:42:43;19.02;;;11.50;;
35128;SDS011;21301;43.626;10.580;2024-03-17T10:45:19;19.17;;;11.50;;
35128;SDS011;21301;43.626;10.580;2024-03-17T10:47:53;19.05;;;11.07;;
35128;SDS011;21301;43.626;10.580;2024-03-17T10:50:20;17.58;;;10.07;;
35128;SDS011;21301;43.626;10.580;2024-03-17T10:52:48;18.95;;;11.05;;
35128;SDS011;21301;43.626;10.580;2024-03-17T10:55:20;16.17;;;11.43;;
35128;SDS011;21301;43.626;10.580;2024-03-17T10:57:48;18.42;;;11.52;;
35128;SDS011;21301;43.626;10.580;2024-03-17T11:00:16;16.45;;;10.93;;
35128;SDS011;21301;43.626;10.580;2024-03-17T11:02:45;23.50;;;10.85;;
35128;SDS011;21301;43.626;10.580;2024-03-17T11:07:42;20.05;;;12.15;;
35128;SDS011;21301;43.626;10.580;2024-03-17T11:10:14;19.25;;;10.82;;
35128;SDS011;21301;43.626;10.580;2024-03-17T11:12:44;19.13;;;12.73;;
35128;SDS011;21301;43.626;10.580;2024-03-17T11:20:26;20.42;;;12.27;;
35128;SDS011;21301;43.626;10.580;2024-03-17T11:22:54;16.85;;;10.93;;
35128;SDS011;21301;43.626;10.580;2024-03-17T11:49:29;24.33;;;15.77;;
35128;SDS011;21301;43.626;10.580;2024-03-17T11:51:57;22.35;;;14.68;;
35128;SDS011;21301;43.626;10.580;2024-03-17T11:54:31;23.63;;;15.65;;
35128;SDS011;21301;43.626;10.580;2024-03-17T11:59:32;20.33;;;13.25;;
35128;SDS011;21301;43.626;10.580;2024-03-17T12:01:59;19.15;;;12.32;;
35128;SDS011;21301;43.626;10.580;2024-03-17T12:04:25;23.13;;;14.18;;
35128;SDS011;21301;43.626;10.580;2024-03-17T12:06:51;22.17;;;13.93;;
35128;SDS011;21301;43.626;10.580;2024-03-17T12:09:21;23.67;;;13.93;;
35128;SDS011;21301;43.626;10.580;2024-03-17T12:12:05;26.02;;;14.65;;
35128;SDS011;21301;43.626;10.580;2024-03-17T12:14:34;21.77;;;14.65;;
35128;SDS011;21301;43.626;10.580;2024-03-17T12:17:03;23.35;;;13.43;;
35128;SDS011;21301;43.626;10.580;2024-03-17T12:19:30;23.55;;;14.48;;
35128;SDS011;21301;43.626;10.580;2024-03-17T12:21:57;20.48;;;15.10;;
35128;SDS011;21301;43.626;10.580;2024-03-17T12:24:26;20.40;;;14.80;;
35128;SDS011;21301;43.626;10.580;2024-03-17T12:26:53;23.63;;;15.32;;
35128;SDS011;21301;43.626;10.580;2024-03-17T12:34:43;26.70;;;18.00;;
35128;SDS011;21301;43.626;10.580;2024-03-17T12:37:18;26.30;;;14.90;;
35128;SDS011;21301;43.626;10.580;2024-03-17T12:39:48;26.60;;;16.27;;
35128;SDS011;21301;43.626;10.580;2024-03-17T12:42:25;26.10;;;15.35;;
35128;SDS011;21301;43.626;10.580;2024-03-17T12:47:25;23.30;;;13.02;;
35128;SDS011;21301;43.626;10.580;2024-03-17T12:49:55;26.42;;;14.63;;
35128;SDS011;21301;43.626;10.580;2024-03-17T12:52:23;21.10;;;13.18;;
35128;SDS011;21301;43.626;10.580;2024-03-17T12:54:57;19.85;;;12.45;;
35128;SDS011;21301;43.626;10.580;2024-03-17T12:57:42;25.05;;;12.90;;
35128;SDS011;21301;43.626;10.580;2024-03-17T13:00:31;24.20;;;12.05;;
35128;SDS011;21301;43.626;10.580;2024-03-17T13:02:58;19.15;;;12.55;;
35128;SDS011;21301;43.626;10.580;2024-03-17T13:05:24;21.35;;;11.88;;
35128;SDS011;21301;43.626;10.580;2024-03-17T13:07:50;19.33;;;10.82;;
35128;SDS011;21301;43.626;10.580;2024-03-17T13:10:19;19.48;;;10.63;;
35128;SDS011;21301;43.626;10.580;2024-03-17T13:12:45;15.43;;;9.55;;
35128;SDS011;21301;43.626;10.580;2024-03-17T13:15:12;19.30;;;10.60;;
35128;SDS011;21301;43.626;10.580;2024-03-17T13:17:42;18.30;;;10.95;;
35128;SDS011;21301;43.626;10.580;2024-03-17T13:20:12;17.83;;;9.98;;
35128;SDS011;21301;43.626;10.580;2024-03-17T13:22:40;19.00;;;11.35;;
35128;SDS011;21301;43.626;10.580;2024-03-17T13:25:19;17.80;;;10.68;;
35128;SDS011;21301;43.626;10.580;2024-03-17T13:27:48;16.40;;;9.65;;
35128;SDS011;21301;43.626;10.580;2024-03-17T13:30:16;16.23;;;9.55;;
35128;SDS011;21301;43.626;10.580;2024-03-17T13:32:43;17.67;;;10.88;;
35128;SDS011;21301;43.626;10.580;2024-03-17T13:35:18;20.55;;;13.18;;
35128;SDS011;21301;43.626;10.580;2024-03-17T13:37:48;19.73;;;12.30;;
35128;SDS011;21301;43.626;10.580;2024-03-17T13:40:16;16.65;;;10.43;;
35128;SDS011;21301;43.626;10.580;2024-03-17T13:42:45;21.88;;;10.93;;
35128;SDS011;21301;43.626;10.580;2024-03-17T13:45:13;18.77;;;9.90;;
35128;SDS011;21301;43.626;10.580;2024-03-17T13:47:42;15.27;;;9.55;;
35128;SDS011;21301;43.626;10.580;2024-03-17T13:50:15;20.70;;;9.68;;
35128;SDS011;21301;43.626;10.580;2024-03-17T13:52:40;14.02;;;8.75;;
35128;SDS011;21301;43.626;10.580;2024-03-17T13:55:12;17.20;;;10.00;;
35128;SDS011;21301;43.626;10.580;2024-03-17T13:57:47;14.60;;;8.90;;
35128;SDS011;21301;43.626;10.580;2024-03-17T14:00:16;16.83;;;10.10;;
35128;SDS011;21301;43.626;10.580;2024-03-17T14:02:45;17.63;;;9.82;;
35128;SDS011;21301;43.626;10.580;2024-03-17T14:05:18;19.05;;;9.00;;
35128;SDS011;21301;43.626;10.580;2024-03-17T14:07:46;16.67;;;8.77;;
35128;SDS011;21301;43.626;10.580;2024-03-17T14:10:13;18.75;;;9.02;;
35128;SDS011;21301;43.626;10.580;2024-03-17T14:12:41;14.52;;;8.48;;
35128;SDS011;21301;43.626;10.580;2024-03-17T14:15:08;14.82;;;8.65;;
35128;SDS011;21301;43.626;10.580;2024-03-17T14:17:38;14.43;;;7.95;;
35128;SDS011;21301;43.626;10.580;2024-03-17T14:20:08;17.40;;;8.68;;
35128;SDS011;21301;43.626;10.580;2024-03-17T14:22:36;12.98;;;8.82;;
35128;SDS011;21301;43.626;10.580;2024-03-17T14:25:04;13.50;;;8.23;;
35128;SDS011;21301;43.626;10.580;2024-03-17T14:27:32;16.42;;;9.30;;
35128;SDS011;21301;43.626;10.580;2024-03-17T14:30:00;14.43;;;8.90;;
35128;SDS011;21301;43.626;10.580;2024-03-17T14:32:26;19.23;;;8.70;;
35128;SDS011;21301;43.626;10.580;2024-03-17T14:34:53;14.57;;;8.13;;
35128;SDS011;21301;43.626;10.580;2024-03-17T14:37:18;13.68;;;7.43;;
35128;SDS011;21301;43.626;10.580;2024-03-17T14:39:44;14.07;;;7.22;;
35128;SDS011;21301;43.626;10.580;2024-03-17T14:42:10;12.23;;;7.38;;
35128;SDS011;21301;43.626;10.580;2024-03-17T14:44:36;15.40;;;7.43;;
35128;SDS011;21301;43.626;10.580;2024-03-17T14:47:02;16.85;;;7.18;;
35128;SDS011;21301;43.626;10.580;2024-03-17T14:49:30;14.55;;;8.32;;
35128;SDS011;21301;43.626;10.580;2024-03-17T14:51:56;11.38;;;7.57;;
35128;SDS011;21301;43.626;10.580;2024-03-17T14:54:22;12.98;;;8.02;;
35128;SDS011;21301;43.626;10.580;2024-03-17T14:56:48;12.88;;;8.27;;
35128;SDS011;21301;43.626;10.580;2024-03-17T14:59:14;12.80;;;8.43;;
35128;SDS011;21301;43.626;10.580;2024-03-17T15:01:43;13.40;;;7.55;;
35128;SDS011;21301;43.626;10.580;2024-03-17T15:04:10;19.75;;;9.30;;
35128;SDS011;21301;43.626;10.580;2024-03-17T15:06:35;13.00;;;7.38;;
35128;SDS011;21301;43.626;10.580;2024-03-17T15:09:01;13.07;;;5.20;;
35128;SDS011;21301;43.626;10.580;2024-03-17T15:11:28;7.50;;;4.28;;
35128;SDS011;21301;43.626;10.580;2024-03-17T15:13:56;8.48;;;3.58;;
35128;SDS011;21301;43.626;10.580;2024-03-17T15:16:21;11.38;;;4.28;;